x

Stingray Point, Va (44058) Weather Station

12:50am - Tue 9th Feb 2016 All times are EST. -5 hours from GMT.

  • Wind
    7mph, 9mph gusts
  • Air Temp 41°f
  • Sea Pressure 1003mb
  • Stingray Point, Va
  • Stingray Point, Va

More Historic Weather Station data

Upgrade to MSW Pro to gain access to the past 30 days of data for over 8000 Wavebouys and Weather Stations around the globe.

Join Pro

Comparision Forecast

View Surf forecast
   
Tue 02/09 12:50am  -   -  7 9 mph 1003mb - 41f
12:40am  -   -  7
mph
1003.2mb - 41f
12:30am  -   -  7 9 mph 1003.4mb - 41f
12:20am  -   -  7 9 mph 1003.5mb - 41f
12:10am  -   -  9 11 mph 1003.4mb - 41f
12:00am 1.6ft 3s 9 11 mph 1003.5mb 41f 41f
Mon 02/08 11:50pm  -   -  9 11 mph 1003.6mb - 41f
11:40pm  -   -  9 11 mph 1003.7mb - 41f
11:30pm  -   -  11 13 mph 1003.7mb - 41f
11:20pm  -   -  11 16 mph 1003.8mb - 41f
11:10pm  -   -  11 16 mph 1004.1mb - 41f
11:00pm 1.6ft 3s 11 13 mph 1004.3mb 41f 41f
10:50pm  -   -  11 13 mph 1004.4mb - 41f
10:40pm  -   -  11 13 mph 1004.8mb - 41f
10:30pm  -   -  13 16 mph 1004.9mb - 41f
10:10pm  -   -  13 16 mph 1005.2mb - 41f
10:00pm 2ft 3s 13 16 mph 1005.1mb 41f 41f
9:50pm  -   -  13 16 mph 1005.2mb - 41f
9:40pm  -   -  13 16 mph 1005.5mb - 41f
9:30pm  -   -  13 18 mph 1005.5mb - 41f
9:20pm  -   -  16 18 mph 1005.5mb - 41f
9:10pm  -   -  16 18 mph 1005.6mb - 41f
9:00pm 2ft 3s 13 16 mph 1005.9mb 41f 41f
8:50pm  -   -  16 20 mph 1005.9mb - 41f
8:40pm  -   -  16 18 mph 1006.2mb - 41f
8:30pm  -   -  16 18 mph 1006.3mb - 41f
8:20pm  -   -  16 18 mph 1006.4mb - 41f
8:10pm  -   -  13 18 mph 1006.3mb - 41f
8:00pm 2ft 3s 16 18 mph 1006.4mb 42f 41f
7:50pm  -   -  13 16 mph 1006.6mb - 41f
7:40pm  -   -  13
mph
1006.8mb - 41f
7:30pm  -   -  13 16 mph 1006.8mb - 41f
7:20pm  -   -  13 16 mph 1006.8mb - 41f
7:10pm  -   -  16 18 mph 1006.8mb - 41f
7:00pm 1.6ft 3s 16 18 mph 1006.7mb 42f 41f
6:50pm  -   -  16 18 mph 1006.7mb - 41f
6:40pm  -   -  16 20 mph 1006.8mb - 41f
6:30pm  -   -  16 18 mph 1006.8mb - 41f
6:20pm  -   -  16 18 mph 1006.8mb - 41f
6:10pm  -   -  13 18 mph 1006.8mb - 41f
6:00pm 1.3ft 2s 13 18 mph 1006.7mb 42f 41f
5:50pm  -   -  13 16 mph 1006.8mb - 41f
5:40pm  -   -  13 16 mph 1006.7mb - 41f
5:30pm  -   -  13 16 mph 1006.5mb - 41f
5:20pm  -   -  11 18 mph 1006.5mb - 41f
5:10pm  -   -  11 13 mph 1006.5mb - 41f
5:00pm 0.7ft  -  13 16 mph 1006.2mb 42f 41f
4:50pm  -   -  11 16 mph 1006.3mb - 41f
4:40pm  -   -  9 13 mph 1006.8mb - 41f
4:30pm  -   -  11 13 mph 1006.6mb - 41f
4:10pm  -   -  11
mph
1006.6mb - 41f
4:00pm 0.7ft  -  9 11 mph 1006.6mb 42f 41f
3:50pm  -   -  9
mph
1006.5mb - 41f
3:40pm  -   -  7 9 mph 1006.6mb - 41f
3:30pm  -   -  9 11 mph 1006.5mb - 41f
3:20pm  -   -  9 11 mph 1006.2mb - 41f
3:10pm  -   -  9 11 mph 1006.4mb - 41f
3:00pm 0.7ft  -  9
mph
1006.4mb 42f 41f
2:50pm  -   -  9
mph
1006.4mb - 41f
2:40pm  -   -  7 9 mph 1006.5mb - 41f
2:30pm  -   -  7
mph
1006.6mb - 41f
2:20pm  -   -  4 7 mph 1006.6mb - 41f
2:10pm  -   -  4 7 mph 1006.5mb - 41f
2:00pm 0.7ft  -  4 7 mph 1006.4mb 42f 42f
1:50pm  -   -  4 7 mph 1006.4mb - 42f
1:40pm  -   -  2 4 mph 1006.5mb - 42f
1:30pm  -   -  2 4 mph 1006.5mb - 42f
1:20pm  -   -  2 4 mph 1006.5mb - 42f
1:10pm  -   -  4 7 mph 1006.6mb - 42f
1:00pm 1ft 3s 4 7 mph 1006.7mb 42f 42f
12:50pm  -   -  2 4 mph 1006.8mb - 42f
12:40pm  -   -  2 4 mph 1006.9mb - 42f
12:30pm  -   -  2 4 mph 1007.3mb - 42f
12:20pm  -   -  2 4 mph 1007.2mb - 42f
12:10pm  -   -  4 7 mph 1007.9mb - 42f
12:00pm 1ft 3s 4 7 mph 1007.9mb 42f 42f
11:50am  -   -  7 9 mph 1008mb - 42f
11:40am  -   -  7 9 mph 1008.1mb - 42f
11:30am  -   -  9
mph
1008.2mb - 42f
11:20am  -   -  9
mph
1008.3mb - 41f
11:10am  -   -  9 11 mph 1008.4mb - 41f
11:00am 1.6ft 3s 9 13 mph 1008.4mb 41f 40f
10:50am  -   -  11 13 mph 1008.5mb - 40f
10:40am  -   -  11 13 mph 1008.5mb - 40f
10:30am  -   -  11 13 mph 1008.4mb - 40f
10:20am  -   -  13 16 mph 1008.2mb - 40f
10:10am  -   -  13 16 mph 1008.2mb - 40f
10:00am 1.3ft 3s 16 18 mph 1008mb 41f 40f
9:50am  -   -  13 18 mph 1008.1mb - 40f
9:40am  -   -  16 18 mph 1008.1mb - 40f
9:30am  -   -  16 18 mph 1008.3mb - 39f
9:20am  -   -  16 18 mph 1008.5mb - 39f
9:10am  -   -  13 18 mph 1008.6mb - 39f
9:00am 1.3ft 3s 13 16 mph 1008.7mb 41f 39f
8:50am  -   -  13 18 mph 1008.7mb - 39f
8:40am  -   -  13 16 mph 1008.5mb - 38f
8:30am  -   -  13 16 mph 1008.7mb - 38f
8:20am  -   -  13 16 mph 1008.8mb - 38f
8:10am  -   -  13 18 mph 1008.7mb - 38f
8:00am 1.6ft 3s 13 20 mph 1008.6mb 42f 38f
7:50am  -   -  16 18 mph 1008.5mb - 38f
7:40am  -   -  16
mph
1008.3mb - 38f
7:30am  -   -  16
mph
1008mb - 38f
7:20am  -   -  13 16 mph 1007.7mb - 38f
7:10am  -   -  13 18 mph 1007.7mb - 38f
7:00am 1.6ft 3s 13 16 mph 1007.6mb 42f 38f
6:50am  -   -  13 16 mph 1007.5mb - 39f
6:40am  -   -  13 16 mph 1007.4mb - 39f
6:30am  -   -  13 16 mph 1007.3mb - 39f
6:20am  -   -  13 16 mph 1007.3mb - 40f
6:10am  -   -  13 18 mph 1007.2mb - 40f
6:00am 2ft 3s 16 20 mph 1007.2mb 42f 40f
5:50am  -   -  18 22 mph 1007mb - 40f
5:40am  -   -  18 20 mph 1006.9mb - 40f
5:30am  -   -  20 25 mph 1006.7mb - 40f
5:20am  -   -  20 25 mph 1006.4mb - 41f
5:10am  -   -  22 27 mph 1006.3mb - 41f
5:00am 2.5ft 3s 20 25 mph 1006.3mb 42f 41f
4:50am  -   -  20 25 mph 1006.1mb - 41f
4:40am  -   -  20 25 mph 1005.8mb - 41f
4:30am  -   -  20 25 mph 1005.6mb - 41f
4:20am  -   -  20 27 mph 1005.4mb - 41f
4:10am  -   -  20 25 mph 1005.6mb - 41f
4:00am 2.5ft 3s 20 27 mph 1005.6mb 42f 41f
3:50am  -   -  22 27 mph 1005.3mb - 41f
3:40am  -   -  22 29 mph 1005.1mb - 41f
3:30am  -   -  22 27 mph 1004.9mb - 41f
3:20am  -   -  22 29 mph 1004.7mb - 41f
3:10am  -   -  22 27 mph 1004.7mb - 42f
3:00am 2.5ft 3s 22 29 mph 1004.7mb 42f 42f
2:50am  -   -  22 29 mph 1004.7mb - 42f
2:40am  -   -  22 29 mph 1004.8mb - 42f
2:30am  -   -  22 29 mph 1004.7mb - 42f
2:20am  -   -  25 29 mph 1004.5mb - 42f
2:10am  -   -  25 31 mph 1004.3mb - 42f
2:00am 3ft 3s 27 31 mph 1004.1mb 42f 42f
1:50am  -   -  27 34 mph 1004.2mb - 42f
1:40am  -   -  27 34 mph 1004.5mb - 42f
1:30am  -   -  27 31 mph 1004.7mb - 41f
1:20am  -   -  25 31 mph 1004.8mb - 41f
1:10am  -   -  25 29 mph 1004.9mb - 41f
1:00am 2.5ft 3s 25 29 mph 1005.2mb 42f 41f
12:50am  -   -  25 34 mph 1005.4mb - 41f
12:40am  -   -  25 31 mph 1005.5mb - 41f
12:30am  -   -  25 31 mph 1005.5mb - 41f
12:20am  -   -  25 31 mph 1005.8mb - 41f
12:10am  -   -  27 31 mph 1006mb - 41f
12:00am 3ft 3s 27 31 mph 1006.1mb 42f 41f
Sun 02/07 11:50pm  -   -  27 31 mph 1006.6mb - 41f
11:40pm  -   -  25 31 mph 1006.8mb - 41f
11:30pm  -   -  25 31 mph 1006.9mb - 41f
11:20pm  -   -  25 29 mph 1007mb - 42f
11:10pm  -   -  27 34 mph 1007.2mb - 42f
11:00pm 3ft 3s 27 34 mph 1007.4mb 42f 42f
10:50pm  -   -  27 34 mph 1007.6mb - 42f
10:40pm  -   -  27 34 mph 1007.5mb - 42f
10:30pm  -   -  27 34 mph 1007.7mb - 42f
10:20pm  -   -  27 34 mph 1007.9mb - 42f
10:10pm  -   -  27 31 mph 1008mb - 41f
10:00pm 3ft 4s 25 31 mph 1008.2mb 42f 41f
9:50pm  -   -  27 34 mph 1008.2mb - 41f
9:40pm  -   -  25 31 mph 1008.5mb - 41f
9:30pm  -   -  25 31 mph 1008.7mb - 41f
9:20pm  -   -  25 31 mph 1009mb - 41f
9:10pm  -   -  25 31 mph 1009.2mb - 41f
9:00pm 2.5ft 3s 25 29 mph 1009.5mb 42f 41f
8:50pm  -   -  25 29 mph 1009.5mb - 41f
8:40pm  -   -  25 31 mph 1009.6mb - 41f
8:30pm  -   -  25 29 mph 1009.7mb - 41f
8:20pm  -   -  25 31 mph 1009.9mb - 41f
8:10pm  -   -  25 29 mph 1009.9mb - 41f
8:00pm 3ft 3s 22 27 mph 1010.1mb 42f 41f
7:50pm  -   -  22 27 mph 1010.1mb - 41f
7:40pm  -   -  22 27 mph 1010.1mb - 41f
7:30pm  -   -  22 27 mph 1010.3mb - 41f
7:20pm  -   -  22 27 mph 1010.4mb - 41f
7:10pm  -   -  22 27 mph 1010.5mb - 41f
7:00pm 2.5ft 3s 22 27 mph 1010.5mb 42f 41f
6:50pm  -   -  22 29 mph 1010.9mb - 41f
6:40pm  -   -  22 27 mph 1011mb - 41f
6:30pm  -   -  22 27 mph 1011mb - 41f
6:20pm  -   -  25 29 mph 1011.2mb - 42f
6:10pm  -   -  22 27 mph 1011.5mb - 42f
6:00pm 2.5ft 3s 22 27 mph 1011.8mb 42f 41f
5:50pm  -   -  20 25 mph 1012.1mb - 41f
5:40pm  -   -  20 25 mph 1012.3mb - 41f
5:30pm  -   -  22 25 mph 1012.4mb - 41f
5:20pm  -   -  22 27 mph 1012.8mb - 41f
5:10pm  -   -  20 25 mph 1013mb - 41f
5:00pm 2.5ft 3s 20 25 mph 1013.3mb 42f 41f
4:50pm  -   -  20 25 mph 1013mb - 41f
4:40pm  -   -  22 25 mph 1012.8mb - 41f
4:30pm  -   -  20 25 mph 1013mb - 41f
4:20pm  -   -  22 29 mph 1013.2mb - 42f
4:10pm  -   -  22 27 mph 1013.3mb - 42f
4:00pm 2.5ft 3s 20 25 mph 1013.5mb 42f 41f
3:50pm  -   -  20 25 mph 1013.7mb - 41f
3:40pm  -   -  20 25 mph 1013.9mb - 41f
3:30pm  -   -  20 25 mph 1014mb - 41f
3:20pm  -   -  22 25 mph 1014mb - 41f
3:10pm  -   -  22 27 mph 1014mb - 41f
3:00pm 2.5ft 3s 22 27 mph 1014.3mb 42f 41f
2:50pm  -   -  20 25 mph 1014.5mb - 40f
2:40pm  -   -  22 25 mph 1014.4mb - 40f
2:30pm  -   -  22 27 mph 1014.2mb - 40f
2:20pm  -   -  20 25 mph 1014.4mb - 40f
2:10pm  -   -  22 25 mph 1014.6mb - 40f
2:00pm 2.5ft 3s 20 25 mph 1014.8mb 42f 40f
1:50pm  -   -  20 25 mph 1014.8mb - 40f
1:40pm  -   -  22 27 mph 1014.6mb - 40f
1:30pm  -   -  22 27 mph 1014.6mb - 40f
1:20pm  -   -  22 27 mph 1015mb - 40f
1:10pm  -   -  22 27 mph 1015.4mb - 40f
1:00pm 2.5ft 3s 20 25 mph 1016.2mb 42f 40f
12:50pm  -   -  20 22 mph 1017.1mb - 40f
12:40pm  -   -  18 22 mph 1017.7mb - 40f
12:30pm  -   -  18 22 mph 1018mb - 40f
12:20pm  -   -  18 22 mph 1018.1mb - 40f
12:10pm  -   -  18 22 mph 1018.5mb - 40f
12:00pm 2ft 3s 18 20 mph 1018.8mb 42f 40f
11:50am  -   -  16 20 mph 1019.4mb - 40f
11:40am  -   -  16 18 mph 1019.9mb - 39f
11:30am  -   -  16 20 mph 1020.1mb - 39f
11:20am  -   -  18 20 mph 1019.8mb - 39f
11:10am  -   -  18 20 mph 1019.8mb - 39f
11:00am 2ft 3s 18 22 mph 1019.9mb 42f 39f
10:50am  -   -  16 20 mph 1020mb - 39f
10:40am  -   -  18 20 mph 1020mb - 39f
10:30am  -   -  16 18 mph 1019.9mb - 39f
10:20am  -   -  16 18 mph 1019.7mb - 39f
10:10am  -   -  16 18 mph 1020mb - 39f
10:00am 1.6ft 3s 13 18 mph 1020.4mb 42f 39f
9:50am  -   -  13 16 mph 1020.6mb - 39f
9:40am  -   -  13 16 mph 1020.5mb - 39f
9:30am  -   -  16 18 mph 1020.1mb - 39f
9:20am  -   -  16 18 mph 1020.4mb - 39f
9:10am  -   -  16 18 mph 1020.8mb - 39f
9:00am 1.3ft 3s 13 16 mph 1020.9mb 42f 39f
8:50am  -   -  13 18 mph 1021mb - 39f
8:40am  -   -  13 18 mph 1020.9mb - 39f
8:30am  -   -  16 18 mph 1020.5mb - 39f
8:20am  -   -  13 18 mph 1020.7mb - 39f
8:10am  -   -  13 16 mph 1020.9mb - 39f
8:00am 1ft 2s 13 16 mph 1021.1mb 42f 39f
7:50am  -   -  13 16 mph 1020.9mb - 39f
7:40am  -   -  13
mph
1020.9mb - 39f
7:30am  -   -  11 13 mph 1021.3mb - 39f
7:20am  -   -  11 13 mph 1021.2mb - 39f
7:10am  -   -  11 13 mph 1021.1mb - 39f
7:00am  -   -  9 11 mph 1021.2mb 42f 39f
6:50am  -   -  9 11 mph 1021.1mb - 39f
6:40am  -   -  9 11 mph 1021mb - 39f
6:30am  -   -  9 11 mph 1021.2mb - 39f
6:20am  -   -  9
mph
1021.4mb - 39f
6:10am  -   -  9
mph
1021.5mb - 39f
6:00am  -   -  9 11 mph 1021.3mb 42f 39f
5:50am  -   -  9 11 mph 1021.6mb - 39f
5:40am  -   -  9
mph
1021.5mb - 38f
5:30am  -   -  9 11 mph 1021.4mb - 38f
5:20am  -   -  11
mph
1020.9mb - 38f
5:10am  -   -  9 11 mph 1021.4mb - 38f
5:00am  -   -  7 9 mph 1021.9mb 42f 38f
4:50am  -   -  7 9 mph 1022.2mb - 38f
4:40am  -   -  7
mph
1022.6mb - 38f
4:30am  -   -  7
mph
1022.7mb - 38f
4:20am  -   -  7
mph
1022.7mb - 38f
4:10am  -   -  7 9 mph 1022.3mb - 38f
4:00am  -   -  7
mph
1022.4mb 41f 38f
3:50am  -   -  4 7 mph 1022.9mb - 38f
3:40am  -   -  4 7 mph 1023mb - 38f
3:30am  -   -  4 7 mph 1023mb - 38f
3:20am  -   -  4
mph
1023.3mb - 38f
3:10am  -   -   -  2 mph 1023.5mb - 38f
3:00am  -   -   -  mph 1023.6mb 41f 38f
2:50am  -   -   -  mph 1023.9mb - 38f
2:40am  -   -   -  mph 1023.8mb - 38f
2:30am  -   -   -  mph 1024mb - 38f
2:20am  -   -   -  mph 1024.3mb - 38f
2:10am  -   -   -  mph 1024.4mb - 38f
2:00am  -   -   -  2 mph 1024.4mb 42f 38f
1:50am  -   -   -  2 mph 1024.6mb - 39f
1:40am  -   -   -  2 mph 1024.5mb - 39f
1:30am  -   -   -  2 mph 1024.4mb - 39f
1:20am  -   -  2 4 mph 1024.3mb - 39f
1:10am  -   -  2 4 mph 1024.2mb - 39f
1:00am  -   -  2
mph
1024.3mb 42f 39f
12:50am  -   -  2 4 mph 1024.5mb - 39f
12:40am  -   -  2 4 mph 1024.6mb - 39f
12:30am  -   -  4
mph
1024.6mb - 39f
12:20am  -   -  2 4 mph 1024.8mb - 39f
12:10am  -   -  2 4 mph 1024.9mb - 39f
12:00am  -   -  2 4 mph 1024.8mb 42f 39f
Sat 02/06 11:50pm  -   -  2 4 mph 1024.6mb - 39f
11:40pm  -   -  2 4 mph 1024.9mb - 39f
11:30pm  -   -  4
mph
1025.2mb - 39f
11:20pm  -   -  4 7 mph 1025.5mb - 39f
11:10pm  -   -  4
mph
1025.4mb - 39f
11:00pm  -   -  4
mph
1025.4mb 41f 38f
10:50pm  -   -  2 4 mph 1025.4mb - 38f
10:40pm  -   -  4
mph
1025.6mb - 38f
10:30pm  -   -  4
mph
1025.8mb - 38f
10:20pm  -   -  2 4 mph 1026.2mb - 38f
10:10pm  -   -   -  2 mph 1026.3mb - 38f
10:00pm 0.3ft  -   -  2 mph 1026.4mb 42f 38f
9:50pm  -   -  2
mph
1026.5mb - 38f
9:40pm  -   -  4
mph
1026.6mb - 38f
9:30pm  -   -  4 7 mph 1026.9mb - 38f
9:20pm  -   -  7
mph
1027.1mb - 38f
9:10pm  -   -  7
mph
1027.2mb - 39f
9:00pm  -   -  7
mph
1027.2mb 42f 39f
8:50pm  -   -  7
mph
1027.3mb - 39f
8:40pm  -   -  7
mph
1027.5mb - 39f
8:30pm  -   -  4 7 mph 1027.6mb - 39f
8:20pm  -   -  4 7 mph 1027.6mb - 39f
8:10pm  -   -  4 7 mph 1027.5mb - 39f
8:00pm  -   -  7
mph
1027.4mb 42f 40f
7:50pm  -   -  7
mph
1027.3mb - 40f
7:40pm  -   -  7 9 mph 1027.2mb - 40f
7:30pm  -   -  9
mph
1027mb - 40f
7:20pm  -   -  9
mph
1027.1mb - 40f
7:10pm  -   -  9 11 mph 1026.9mb - 40f
7:00pm  -   -  9 11 mph 1027mb 42f 39f
6:50pm  -   -  9 11 mph 1027mb - 39f
6:40pm  -   -  9 11 mph 1027.2mb - 39f
6:30pm  -   -  9 11 mph 1027.2mb - 40f
6:20pm  -   -  9 11 mph 1027.3mb - 40f
6:10pm  -   -  7 9 mph 1027.2mb - 40f
6:00pm  -   -  7 9 mph 1027.3mb 43f 40f
5:50pm  -   -  7
mph
1027.3mb - 40f
5:40pm  -   -  4 7 mph 1027.4mb - 40f
5:30pm  -   -  4 7 mph 1027.4mb - 40f
5:20pm  -   -  4
mph
1027.4mb - 40f
5:10pm  -   -  2 4 mph 1027.4mb - 41f
5:00pm 0.3ft  -  4
mph
1027.4mb 43f 41f
4:50pm  -   -  4
mph
1027.4mb - 41f
4:40pm  -   -  4
mph
1027.5mb - 41f
4:30pm  -   -  4 7 mph 1027.4mb - 41f
4:20pm  -   -  4 7 mph 1027.4mb - 40f
4:10pm  -   -  7
mph
1027.4mb - 40f
4:00pm 0.3ft  -  7
mph
1027.3mb 43f 41f
3:50pm  -   -  4 7 mph 1027.4mb - 41f
3:40pm  -   -  4 7 mph 1027.4mb - 41f
3:30pm  -   -  4 7 mph 1027.3mb - 41f
3:20pm  -   -  4 7 mph 1027.4mb - 40f
3:10pm  -   -  4 7 mph 1027.4mb - 40f
3:00pm 0.3ft  -  4 7 mph 1027.6mb 43f 40f
2:50pm  -   -  4 7 mph 1027.7mb - 39f
2:40pm  -   -  4 7 mph 1027.7mb - 40f
2:30pm  -   -  4 7 mph 1027.8mb - 39f
2:20pm  -   -  4
mph
1028mb - 39f
2:10pm  -   -  4 7 mph 1028.3mb - 39f
2:00pm 0.3ft  -  4 7 mph 1028.6mb 43f 39f
1:50pm  -   -  4 7 mph 1028.9mb - 39f
1:40pm  -   -  4
mph
1029.1mb - 39f
1:30pm  -   -  4
mph
1029.1mb - 39f
1:20pm  -   -  4 7 mph 1029.3mb - 38f
1:10pm  -   -  4 7 mph 1029.5mb - 38f
1:00pm 0.3ft  -  4 7 mph 1029.8mb 42f 38f
12:50pm  -   -  4
mph
1030.1mb - 38f
12:40pm  -   -  4
mph
1030.3mb - 38f
12:30pm  -   -  4
mph
1030.6mb - 38f
12:20pm  -   -  2 4 mph 1030.8mb - 39f
12:10pm  -   -  2 4 mph 1031mb - 39f
12:00pm 0.3ft  -  2 4 mph 1031.1mb 43f 39f
11:50am  -   -  2 4 mph 1031.5mb - 39f
11:40am  -   -  2 4 mph 1031.6mb - 39f
11:30am  -   -   -  2 mph 1031.7mb - 40f
11:20am  -   -  2
mph
1031.9mb - 39f
11:10am  -   -   -  2 mph 1032.1mb - 39f
11:00am 0.7ft  -   -  2 mph 1032.3mb 43f 40f
10:50am  -   -   -  2 mph 1032.3mb - 39f
10:40am  -   -   -  2 mph 1032.4mb - 39f
10:30am  -   -  2
mph
1032.3mb - 39f
10:20am  -   -  2
mph
1032.2mb - 40f
10:10am  -   -   -  2 mph 1032.3mb - 39f
10:00am 0.7ft  -  2
mph
1032.2mb 42f 39f
9:50am  -   -  2
mph
1032.2mb - 39f
9:40am  -   -  2 4 mph 1032.1mb - 39f
9:30am  -   -  4
mph
1032mb - 38f
9:20am  -   -  2 4 mph 1032.1mb - 38f
9:10am  -   -  4 7 mph 1032mb - 38f
9:00am 0.7ft  -  4 7 mph 1032mb 42f 38f
8:50am  -   -  4 7 mph 1032mb - 38f
8:40am  -   -  7
mph
1032mb - 38f
8:30am  -   -  7 9 mph 1032mb - 38f
8:20am  -   -  4 7 mph 1032mb - 38f
8:10am  -   -  7 9 mph 1031.8mb - 38f
8:00am 1ft 3s 7 9 mph 1031.9mb 42f 38f
7:50am  -   -  7 9 mph 1031.8mb - 37f
7:40am  -   -  7 9 mph 1031.8mb - 37f
7:30am  -   -  7 9 mph 1031.8mb - 38f
7:20am  -   -  7 9 mph 1031.7mb - 37f
7:10am  -   -  9 11 mph 1031.6mb - 37f
7:00am 1.3ft 3s 9 11 mph 1031.4mb 42f 37f
6:50am  -   -  9 11 mph 1031.4mb - 37f
6:40am  -   -  9 13 mph 1031.3mb - 37f
6:30am  -   -  11 13 mph 1031.3mb - 38f
6:20am  -   -  11 13 mph 1031.1mb - 38f
6:10am  -   -  11 13 mph 1031mb - 38f
6:00am 1.3ft 3s 11 13 mph 1030.9mb 42f 38f
5:50am  -   -  11 13 mph 1030.9mb - 38f
5:40am  -   -  11 13 mph 1030.8mb - 38f
5:30am  -   -  11 16 mph 1030.8mb - 38f
5:20am  -   -  11 16 mph 1030.7mb - 38f
5:10am  -   -  11 16 mph 1030.7mb - 38f
5:00am 1.3ft 3s 11 16 mph 1030.6mb 42f 38f
4:50am  -   -  11 16 mph 1030.5mb - 38f
4:40am  -   -  9
mph
1030.5mb - 37f
4:30am  -   -  9
mph
1030.3mb - 37f
4:20am  -   -  9
mph
1030.1mb - 37f
4:10am  -   -  7 9 mph 1030mb - 36f
4:00am 1ft 3s 9 11 mph 1030mb 42f 36f
3:50am  -   -  9
mph
1030.1mb - 36f
3:40am  -   -  9 11 mph 1030.1mb - 37f
3:30am  -   -  9 11 mph 1030mb - 37f
3:20am  -   -  9 11 mph 1030mb - 37f
3:10am  -   -  9
mph
1030mb - 37f
3:00am 1ft 3s 9
mph
1030.1mb 42f 37f
2:50am  -   -  9
mph
1030mb - 37f
2:40am  -   -  9 11 mph 1030mb - 37f
2:30am  -   -  9 11 mph 1030mb - 37f
2:20am  -   -  9 11 mph 1030mb - 37f
2:10am  -   -  9 13 mph 1030mb - 37f
2:00am 1ft 3s 9 11 mph 1029.9mb 42f 37f
1:50am  -   -  9 11 mph 1029.7mb - 37f
1:40am  -   -  9 11 mph 1029.7mb - 37f
1:30am  -   -  9 11 mph 1029.6mb - 38f
1:20am  -   -  9 11 mph 1029.7mb - 38f
1:10am  -   -  9 13 mph 1029.7mb - 38f
1:00am 1ft 3s 9 11 mph 1029.7mb 42f 38f
12:50am  -   -  11 13 mph 1029.7mb - 38f
12:40am  -   -  11 13 mph 1029.7mb - 38f
12:30am  -   -  11 13 mph 1029.7mb - 38f
12:20am  -   -  11 13 mph 1029.6mb - 38f
12:10am  -   -  11 13 mph 1029.6mb - 38f
12:00am 1ft 3s 11 16 mph 1029.6mb 43f 38f
Fri 02/05 11:50pm  -   -  11 13 mph 1029.6mb - 38f
11:40pm  -   -  11 13 mph 1029.6mb - 38f
11:30pm  -   -  11 13 mph 1029.4mb - 38f
11:20pm  -   -  11 13 mph 1029.3mb - 38f
11:10pm  -   -  11 13 mph 1029.4mb - 38f
11:00pm 1ft 2s 13 16 mph 1029.4mb 42f 38f
10:50pm  -   -  11 16 mph 1029.3mb - 38f
10:40pm  -   -  11 13 mph 1029.3mb - 38f
10:30pm  -   -  11 16 mph 1029.3mb - 38f
10:20pm  -   -  11 16 mph 1029.3mb - 38f
10:10pm  -   -  13 16 mph 1029.1mb - 39f
9:50pm  -   -  13 16 mph 1029.2mb - 39f
9:40pm  -   -  13 16 mph 1029.1mb - 39f
9:30pm  -   -  11 16 mph 1029mb - 39f
9:20pm  -   -  13 16 mph 1029mb - 39f
9:10pm  -   -  11 16 mph 1028.9mb - 39f
9:00pm 1.6ft 3s 13 16 mph 1028.8mb 42f 39f
8:50pm  -   -  13 18 mph 1028.8mb - 39f
8:40pm  -   -  13 18 mph 1028.6mb - 40f
8:30pm  -   -  16 18 mph 1028.6mb - 40f
8:20pm  -   -  16 18 mph 1028.4mb - 40f
8:10pm  -   -  16 18 mph 1028.2mb - 40f
8:00pm 1.3ft 3s 16 18 mph 1028mb 43f 40f
7:50pm  -   -  16 18 mph 1028mb - 40f
7:40pm  -   -  16 18 mph 1027.9mb - 40f
7:30pm  -   -  16 20 mph 1028mb - 40f
7:20pm  -   -  16 18 mph 1028mb - 40f
7:10pm  -   -  16 18 mph 1028mb - 40f
7:00pm 1.6ft 3s 16 20 mph 1027.9mb 43f 41f
6:50pm  -   -  13 16 mph 1028mb - 41f
6:40pm  -   -  13 16 mph 1027.8mb - 41f
6:30pm  -   -  13 18 mph 1027.8mb - 41f
6:20pm  -   -  13 18 mph 1027.8mb - 41f
6:10pm  -   -  13 16 mph 1027.7mb - 41f
6:00pm 1.6ft 3s 13 16 mph 1027.5mb 43f 41f
5:50pm  -   -  13 18 mph 1027.3mb - 42f
5:40pm  -   -  16 18 mph 1027mb - 42f
5:30pm  -   -  16 20 mph 1026.6mb - 42f
5:20pm  -   -  16 20 mph 1026.3mb - 42f
5:10pm  -   -  16 20 mph 1026.1mb - 43f
5:00pm 1.6ft 3s 13 18 mph 1025.9mb 43f 43f
4:50pm  -   -  16 20 mph 1025.8mb - 43f
4:40pm  -   -  16 20 mph 1025.5mb - 43f
4:30pm  -   -  16 20 mph 1025.4mb - 43f
4:20pm  -   -  16 20 mph 1025.4mb - 43f
4:10pm  -   -  16 20 mph 1025.3mb - 43f
4:00pm 1.6ft 2s 13 18 mph 1025.4mb 43f 43f
3:50pm  -   -  16 20 mph 1025.2mb - 43f
3:40pm  -   -  18 22 mph 1025.2mb - 43f
3:30pm  -   -  16 22 mph 1025.3mb - 42f
3:20pm  -   -  16 20 mph 1025mb - 42f
3:10pm  -   -  18 22 mph 1025mb - 42f
3:00pm 1.6ft 2s 18 22 mph 1025.1mb 43f 42f
2:50pm  -   -  20 22 mph 1025mb - 42f
2:40pm  -   -  16 22 mph 1025mb - 42f
2:30pm  -   -  18 20 mph 1025.1mb - 42f
2:20pm  -   -  18 22 mph 1025.2mb - 42f
2:10pm  -   -  16 20 mph 1025.3mb - 42f
2:00pm 1.6ft 3s 16 20 mph 1025.2mb 43f 41f
1:50pm  -   -  20 22 mph 1025.1mb - 41f
1:40pm  -   -  20 25 mph 1025.1mb - 41f
1:30pm  -   -  18 25 mph 1025mb - 41f
1:20pm  -   -  20 25 mph 1025mb - 40f
1:10pm  -   -  20 25 mph 1024.8mb - 40f
1:00pm 2.5ft 3s 22 27 mph 1024.8mb 43f 40f
12:50pm  -   -  20 25 mph 1024.8mb - 40f
12:40pm  -   -  25 29 mph 1024.7mb - 40f
12:30pm  -   -  25 31 mph 1024.7mb - 40f
12:20pm  -   -  25 29 mph 1024.6mb - 40f
12:10pm  -   -  25 31 mph 1024.5mb - 39f
12:00pm 2.5ft 3s 25 31 mph 1024.5mb 42f 39f
11:50am  -   -  25 31 mph 1024.4mb - 40f
11:40am  -   -  25 29 mph 1024.3mb - 40f
11:30am  -   -  25 31 mph 1024mb - 40f
11:20am  -   -  22 29 mph 1023.8mb - 40f
11:10am  -   -  22 27 mph 1023.5mb - 39f
11:00am 2ft 3s 22 29 mph 1023.3mb 42f 39f
10:50am  -   -  22 27 mph 1023.2mb - 38f
10:40am  -   -  20 27 mph 1023.2mb - 37f
10:30am  -   -  20 25 mph 1023.3mb - 37f
10:20am  -   -  20 27 mph 1023.1mb - 37f
10:10am  -   -  20 25 mph 1023mb - 37f
10:00am 2ft 3s 20 25 mph 1022.8mb 42f 37f
9:50am  -   -  18 22 mph 1022.3mb - 36f
9:40am  -   -  18 20 mph 1022.2mb - 36f
9:30am  -   -  18 20 mph 1021.9mb - 36f
9:20am  -   -  18 22 mph 1021.8mb - 36f
9:10am  -   -  18 22 mph 1021.1mb - 36f
9:00am 2.5ft 3s 20 25 mph 1020.8mb 42f 35f
8:50am  -   -  18 22 mph 1021mb - 35f
8:40am  -   -  20 22 mph 1021mb - 35f
8:30am  -   -  20 27 mph 1021.4mb - 35f
8:20am  -   -  20 25 mph 1021.3mb - 35f
8:10am  -   -  22 27 mph 1020.8mb - 35f
8:00am 2.5ft 3s 22 27 mph 1020.4mb 42f 35f
7:50am  -   -  22 27 mph 1020.4mb - 35f
7:40am  -   -  20 27 mph 1021mb - 35f
7:30am  -   -  22 25 mph 1020.3mb - 35f
7:20am  -   -  22 29 mph 1018.7mb - 35f
7:10am  -   -  22 29 mph 1019mb - 35f
7:00am 3.5ft 3s 25 43 mph 1018.8mb 42f 35f
6:50am  -   -  22 31 mph 1018.3mb - 35f